sensor_id;sensor_type;location;lat;lon;timestamp;pressure;altitude;pressure_sealevel;temperature;humidity
77023;BME280;65952;51.440;-2.054;2023-08-08T00:01:53;100481.59;;;16.30;60.20
77023;BME280;65952;51.440;-2.054;2023-08-08T00:04:18;100483.63;;;16.21;60.17
77023;BME280;65952;51.440;-2.054;2023-08-08T00:06:44;100477.38;;;16.21;60.21
77023;BME280;65952;51.440;-2.054;2023-08-08T00:09:09;100476.31;;;16.15;60.72
77023;BME280;65952;51.440;-2.054;2023-08-08T00:11:35;100479.19;;;16.14;60.83
77023;BME280;65952;51.440;-2.054;2023-08-08T00:14:00;100476.31;;;16.15;61.05
77023;BME280;65952;51.440;-2.054;2023-08-08T00:16:25;100474.22;;;16.17;60.95
77023;BME280;65952;51.440;-2.054;2023-08-08T00:18:51;100476.47;;;16.14;60.94
77023;BME280;65952;51.440;-2.054;2023-08-08T00:21:21;100472.50;;;16.09;61.49
77023;BME280;65952;51.440;-2.054;2023-08-08T00:23:47;100472.72;;;16.08;61.24
77023;BME280;65952;51.440;-2.054;2023-08-08T00:26:12;100475.22;;;16.09;61.35
77023;BME280;65952;51.440;-2.054;2023-08-08T00:28:38;100471.03;;;16.07;62.02
77023;BME280;65952;51.440;-2.054;2023-08-08T00:31:03;100467.94;;;16.10;62.09
77023;BME280;65952;51.440;-2.054;2023-08-08T00:33:29;100471.69;;;16.09;62.48
77023;BME280;65952;51.440;-2.054;2023-08-08T00:35:54;100460.41;;;16.05;62.46
77023;BME280;65952;51.440;-2.054;2023-08-08T00:38:20;100462.31;;;16.12;61.91
77023;BME280;65952;51.440;-2.054;2023-08-08T00:40:45;100460.22;;;16.07;62.02
77023;BME280;65952;51.440;-2.054;2023-08-08T00:43:11;100451.44;;;16.05;62.44
77023;BME280;65952;51.440;-2.054;2023-08-08T00:45:37;100443.53;;;16.03;62.30
77023;BME280;65952;51.440;-2.054;2023-08-08T00:48:03;100434.97;;;16.00;62.32
77023;BME280;65952;51.440;-2.054;2023-08-08T00:50:29;100442.25;;;15.92;62.45
77023;BME280;65952;51.440;-2.054;2023-08-08T00:52:54;100442.00;;;15.87;62.91
77023;BME280;65952;51.440;-2.054;2023-08-08T00:55:21;100435.53;;;15.88;62.93
77023;BME280;65952;51.440;-2.054;2023-08-08T00:57:46;100435.53;;;15.88;62.88
77023;BME280;65952;51.440;-2.054;2023-08-08T01:00:12;100424.91;;;15.87;63.17
77023;BME280;65952;51.440;-2.054;2023-08-08T01:02:38;100423.06;;;15.87;63.28
77023;BME280;65952;51.440;-2.054;2023-08-08T01:05:04;100421.38;;;15.86;63.29
77023;BME280;65952;51.440;-2.054;2023-08-08T01:07:43;100418.88;;;15.85;63.52
77023;BME280;65952;51.440;-2.054;2023-08-08T01:10:15;100425.13;;;15.85;63.35
77023;BME280;65952;51.440;-2.054;2023-08-08T01:12:45;100428.84;;;15.84;64.00
77023;BME280;65952;51.440;-2.054;2023-08-08T01:15:13;100427.75;;;15.79;64.29
77023;BME280;65952;51.440;-2.054;2023-08-08T01:17:39;100423.59;;;15.76;64.32
77023;BME280;65952;51.440;-2.054;2023-08-08T01:20:07;100416.28;;;15.76;64.40
77023;BME280;65952;51.440;-2.054;2023-08-08T01:22:40;100411.25;;;15.73;64.29
77023;BME280;65952;51.440;-2.054;2023-08-08T01:25:09;100409.19;;;15.69;64.49
77023;BME280;65952;51.440;-2.054;2023-08-08T01:27:35;100412.88;;;15.61;64.60
77023;BME280;65952;51.440;-2.054;2023-08-08T01:30:01;100413.47;;;15.56;64.83
77023;BME280;65952;51.440;-2.054;2023-08-08T01:32:26;100416.81;;;15.58;64.63
77023;BME280;65952;51.440;-2.054;2023-08-08T01:34:52;100409.50;;;15.52;64.95
77023;BME280;65952;51.440;-2.054;2023-08-08T01:37:20;100414.03;;;15.45;65.30
77023;BME280;65952;51.440;-2.054;2023-08-08T01:39:48;100416.03;;;15.36;65.53
77023;BME280;65952;51.440;-2.054;2023-08-08T01:42:15;100408.13;;;15.35;66.28
77023;BME280;65952;51.440;-2.054;2023-08-08T01:44:41;100409.41;;;15.39;66.54
77023;BME280;65952;51.440;-2.054;2023-08-08T01:47:08;100394.84;;;15.40;66.78
77023;BME280;65952;51.440;-2.054;2023-08-08T01:49:33;100389.63;;;15.38;66.82
77023;BME280;65952;51.440;-2.054;2023-08-08T01:51:59;100391.44;;;15.31;66.92
77023;BME280;65952;51.440;-2.054;2023-08-08T01:54:24;100396.44;;;15.34;66.69
77023;BME280;65952;51.440;-2.054;2023-08-08T01:56:50;100387.06;;;15.30;66.83
77023;BME280;65952;51.440;-2.054;2023-08-08T01:59:16;100391.66;;;15.30;67.06
77023;BME280;65952;51.440;-2.054;2023-08-08T02:01:41;100382.25;;;15.25;67.22
77023;BME280;65952;51.440;-2.054;2023-08-08T02:04:07;100380.59;;;15.24;67.45
77023;BME280;65952;51.440;-2.054;2023-08-08T02:06:32;100389.53;;;15.25;67.52
77023;BME280;65952;51.440;-2.054;2023-08-08T02:08:58;100383.31;;;15.24;67.84
77023;BME280;65952;51.440;-2.054;2023-08-08T02:11:23;100386.81;;;15.25;67.66
77023;BME280;65952;51.440;-2.054;2023-08-08T02:13:49;100381.41;;;15.25;67.68
77023;BME280;65952;51.440;-2.054;2023-08-08T02:16:14;100389.28;;;15.20;68.13
77023;BME280;65952;51.440;-2.054;2023-08-08T02:18:40;100385.16;;;15.24;68.44
77023;BME280;65952;51.440;-2.054;2023-08-08T02:21:10;100376.47;;;15.28;68.25
77023;BME280;65952;51.440;-2.054;2023-08-08T02:23:35;100392.28;;;15.32;68.08
77023;BME280;65952;51.440;-2.054;2023-08-08T02:26:01;100379.44;;;15.40;67.93
77023;BME280;65952;51.440;-2.054;2023-08-08T02:28:27;100374.66;;;15.42;67.99
77023;BME280;65952;51.440;-2.054;2023-08-08T02:30:53;100377.81;;;15.46;67.69
77023;BME280;65952;51.440;-2.054;2023-08-08T02:33:18;100373.22;;;15.47;67.36
77023;BME280;65952;51.440;-2.054;2023-08-08T02:35:44;100380.72;;;15.44;67.55
77023;BME280;65952;51.440;-2.054;2023-08-08T02:38:10;100379.66;;;15.46;67.55
77023;BME280;65952;51.440;-2.054;2023-08-08T02:40:35;100376.97;;;15.46;67.33
77023;BME280;65952;51.440;-2.054;2023-08-08T02:43:01;100380.53;;;15.46;67.60
77023;BME280;65952;51.440;-2.054;2023-08-08T02:45:26;100381.56;;;15.45;67.23
77023;BME280;65952;51.440;-2.054;2023-08-08T02:47:52;100382.00;;;15.49;67.20
77023;BME280;65952;51.440;-2.054;2023-08-08T02:50:17;100379.09;;;15.50;66.93
77023;BME280;65952;51.440;-2.054;2023-08-08T02:52:43;100368.25;;;15.50;67.31
77023;BME280;65952;51.440;-2.054;2023-08-08T02:55:08;100360.78;;;15.52;67.21
77023;BME280;65952;51.440;-2.054;2023-08-08T02:57:34;100357.47;;;15.57;67.23
77023;BME280;65952;51.440;-2.054;2023-08-08T02:59:59;100368.50;;;15.55;67.16
77023;BME280;65952;51.440;-2.054;2023-08-08T03:02:24;100357.53;;;15.64;66.82
77023;BME280;65952;51.440;-2.054;2023-08-08T03:04:50;100348.78;;;15.68;67.01
77023;BME280;65952;51.440;-2.054;2023-08-08T03:07:15;100360.47;;;15.69;66.56
77023;BME280;65952;51.440;-2.054;2023-08-08T03:09:41;100367.53;;;15.70;66.78
77023;BME280;65952;51.440;-2.054;2023-08-08T03:12:07;100341.31;;;15.70;66.90
77023;BME280;65952;51.440;-2.054;2023-08-08T03:14:33;100352.13;;;15.70;66.33
77023;BME280;65952;51.440;-2.054;2023-08-08T03:16:59;100354.59;;;15.58;67.10
77023;BME280;65952;51.440;-2.054;2023-08-08T03:19:25;100356.22;;;15.59;66.58
77023;BME280;65952;51.440;-2.054;2023-08-08T03:21:50;100367.31;;;15.65;66.51
77023;BME280;65952;51.440;-2.054;2023-08-08T03:24:15;100356.84;;;15.55;66.88
77023;BME280;65952;51.440;-2.054;2023-08-08T03:26:41;100367.50;;;15.63;66.55
77023;BME280;65952;51.440;-2.054;2023-08-08T03:29:06;100372.53;;;15.66;66.52
77023;BME280;65952;51.440;-2.054;2023-08-08T03:31:35;100362.28;;;15.62;66.38
77023;BME280;65952;51.440;-2.054;2023-08-08T03:34:00;100359.19;;;15.65;66.04
77023;BME280;65952;51.440;-2.054;2023-08-08T03:36:26;100359.44;;;15.70;66.04
77023;BME280;65952;51.440;-2.054;2023-08-08T03:38:51;100353.38;;;15.68;65.78
77023;BME280;65952;51.440;-2.054;2023-08-08T03:41:17;100365.88;;;15.69;65.81
77023;BME280;65952;51.440;-2.054;2023-08-08T03:43:42;100365.03;;;15.68;66.28
77023;BME280;65952;51.440;-2.054;2023-08-08T03:46:08;100364.00;;;15.69;66.05
77023;BME280;65952;51.440;-2.054;2023-08-08T03:48:34;100349.84;;;15.67;66.05
77023;BME280;65952;51.440;-2.054;2023-08-08T03:50:59;100352.94;;;15.71;66.16
77023;BME280;65952;51.440;-2.054;2023-08-08T03:53:25;100359.84;;;15.73;66.02
77023;BME280;65952;51.440;-2.054;2023-08-08T03:55:50;100357.97;;;15.67;65.94
77023;BME280;65952;51.440;-2.054;2023-08-08T03:58:16;100365.47;;;15.72;65.77
77023;BME280;65952;51.440;-2.054;2023-08-08T04:00:42;100362.75;;;15.72;65.85
77023;BME280;65952;51.440;-2.054;2023-08-08T04:03:15;100355.47;;;15.72;65.99
77023;BME280;65952;51.440;-2.054;2023-08-08T04:05:41;100355.06;;;15.75;65.66
77023;BME280;65952;51.440;-2.054;2023-08-08T04:08:06;100359.00;;;15.73;65.72
77023;BME280;65952;51.440;-2.054;2023-08-08T04:10:32;100352.34;;;15.75;65.37
77023;BME280;65952;51.440;-2.054;2023-08-08T04:12:57;100343.22;;;15.76;65.20
77023;BME280;65952;51.440;-2.054;2023-08-08T04:15:23;100352.56;;;15.74;65.72
77023;BME280;65952;51.440;-2.054;2023-08-08T04:17:49;100349.22;;;15.72;65.64
77023;BME280;65952;51.440;-2.054;2023-08-08T04:20:14;100356.94;;;15.75;65.46
77023;BME280;65952;51.440;-2.054;2023-08-08T04:22:40;100346.31;;;15.73;65.47
77023;BME280;65952;51.440;-2.054;2023-08-08T04:25:06;100345.72;;;15.78;65.33
77023;BME280;65952;51.440;-2.054;2023-08-08T04:27:47;100350.50;;;15.76;65.16
77023;BME280;65952;51.440;-2.054;2023-08-08T04:30:12;100345.72;;;15.78;65.27
77023;BME280;65952;51.440;-2.054;2023-08-08T04:32:38;100330.72;;;15.75;65.52
77023;BME280;65952;51.440;-2.054;2023-08-08T04:35:03;100330.50;;;15.77;65.40
77023;BME280;65952;51.440;-2.054;2023-08-08T04:37:29;100339.25;;;15.79;64.97
77023;BME280;65952;51.440;-2.054;2023-08-08T04:39:54;100341.75;;;15.81;65.16
77023;BME280;65952;51.440;-2.054;2023-08-08T04:42:20;100342.19;;;15.77;65.19
77023;BME280;65952;51.440;-2.054;2023-08-08T04:44:45;100345.72;;;15.78;65.09
77023;BME280;65952;51.440;-2.054;2023-08-08T04:47:11;100337.78;;;15.76;65.14
77023;BME280;65952;51.440;-2.054;2023-08-08T04:49:37;100325.94;;;15.77;65.23
77023;BME280;65952;51.440;-2.054;2023-08-08T04:52:02;100330.91;;;15.74;65.55
77023;BME280;65952;51.440;-2.054;2023-08-08T04:54:27;100337.97;;;15.68;65.76
77023;BME280;65952;51.440;-2.054;2023-08-08T04:56:53;100329.00;;;15.68;65.92
77023;BME280;65952;51.440;-2.054;2023-08-08T04:59:18;100327.78;;;15.70;65.82
77023;BME280;65952;51.440;-2.054;2023-08-08T05:01:43;100321.31;;;15.71;65.95
77023;BME280;65952;51.440;-2.054;2023-08-08T05:04:09;100317.16;;;15.69;66.79
77023;BME280;65952;51.440;-2.054;2023-08-08T05:06:35;100320.47;;;15.71;67.04
77023;BME280;65952;51.440;-2.054;2023-08-08T05:09:00;100319.25;;;15.73;67.03
77023;BME280;65952;51.440;-2.054;2023-08-08T05:11:26;100317.16;;;15.75;67.16
77023;BME280;65952;51.440;-2.054;2023-08-08T05:13:51;100326.31;;;15.74;67.78
77023;BME280;65952;51.440;-2.054;2023-08-08T05:16:17;100323.44;;;15.76;67.90
77023;BME280;65952;51.440;-2.054;2023-08-08T05:18:43;100318.41;;;15.73;67.75
77023;BME280;65952;51.440;-2.054;2023-08-08T05:21:10;100308.81;;;15.70;68.06
77023;BME280;65952;51.440;-2.054;2023-08-08T05:23:36;100316.13;;;15.70;68.41
77023;BME280;65952;51.440;-2.054;2023-08-08T05:26:01;100312.97;;;15.66;68.45
77023;BME280;65952;51.440;-2.054;2023-08-08T05:28:26;100309.84;;;15.63;68.96
77023;BME280;65952;51.440;-2.054;2023-08-08T05:30:52;100320.22;;;15.59;69.09
77023;BME280;65952;51.440;-2.054;2023-08-08T05:33:18;100325.00;;;15.57;69.09
77023;BME280;65952;51.440;-2.054;2023-08-08T05:35:44;100325.84;;;15.57;69.48
77023;BME280;65952;51.440;-2.054;2023-08-08T05:38:09;100313.56;;;15.55;69.79
77023;BME280;65952;51.440;-2.054;2023-08-08T05:40:35;100316.69;;;15.58;69.71
77023;BME280;65952;51.440;-2.054;2023-08-08T05:43:02;100324.63;;;15.60;69.67
77023;BME280;65952;51.440;-2.054;2023-08-08T05:45:27;100323.75;;;15.59;69.82
77023;BME280;65952;51.440;-2.054;2023-08-08T05:47:53;100319.41;;;15.58;69.99
77023;BME280;65952;51.440;-2.054;2023-08-08T05:50:19;100310.66;;;15.63;69.69
77023;BME280;65952;51.440;-2.054;2023-08-08T05:52:45;100315.03;;;15.64;69.88
77023;BME280;65952;51.440;-2.054;2023-08-08T05:55:10;100307.38;;;15.68;69.87
77023;BME280;65952;51.440;-2.054;2023-08-08T05:57:36;100302.78;;;15.68;69.47
77023;BME280;65952;51.440;-2.054;2023-08-08T06:00:03;100307.56;;;15.66;69.90
77023;BME280;65952;51.440;-2.054;2023-08-08T06:02:29;100307.16;;;15.69;69.59
77023;BME280;65952;51.440;-2.054;2023-08-08T06:04:54;100303.41;;;15.64;69.51
77023;BME280;65952;51.440;-2.054;2023-08-08T06:07:19;100294.19;;;15.58;69.90
77023;BME280;65952;51.440;-2.054;2023-08-08T06:09:45;100295.50;;;15.69;69.54
77023;BME280;65952;51.440;-2.054;2023-08-08T06:12:10;100302.81;;;15.75;69.34
77023;BME280;65952;51.440;-2.054;2023-08-08T06:14:36;100307.25;;;15.83;69.21
77023;BME280;65952;51.440;-2.054;2023-08-08T06:17:01;100294.38;;;15.91;68.87
77023;BME280;65952;51.440;-2.054;2023-08-08T06:19:26;100293.28;;;15.86;68.94
77023;BME280;65952;51.440;-2.054;2023-08-08T06:21:52;100284.34;;;15.85;68.73
77023;BME280;65952;51.440;-2.054;2023-08-08T06:24:17;100284.78;;;15.89;69.23
77023;BME280;65952;51.440;-2.054;2023-08-08T06:26:43;100281.63;;;15.85;68.74
77023;BME280;65952;51.440;-2.054;2023-08-08T06:29:08;100279.38;;;15.89;68.93
77023;BME280;65952;51.440;-2.054;2023-08-08T06:31:33;100289.34;;;15.88;69.04
77023;BME280;65952;51.440;-2.054;2023-08-08T06:33:59;100283.75;;;15.90;69.03
77023;BME280;65952;51.440;-2.054;2023-08-08T06:36:24;100287.06;;;15.92;69.14
77023;BME280;65952;51.440;-2.054;2023-08-08T06:38:50;100279.31;;;15.82;69.41
77023;BME280;65952;51.440;-2.054;2023-08-08T06:41:15;100282.72;;;15.98;68.84
77023;BME280;65952;51.440;-2.054;2023-08-08T06:43:40;100288.97;;;16.05;68.78
77023;BME280;65952;51.440;-2.054;2023-08-08T06:46:06;100281.31;;;16.15;68.60
77023;BME280;65952;51.440;-2.054;2023-08-08T06:48:31;100280.06;;;16.24;68.61
77023;BME280;65952;51.440;-2.054;2023-08-08T06:50:56;100286.31;;;16.32;68.20
77023;BME280;65952;51.440;-2.054;2023-08-08T06:53:22;100281.97;;;16.44;68.00
77023;BME280;65952;51.440;-2.054;2023-08-08T06:55:48;100291.56;;;16.47;67.87
77023;BME280;65952;51.440;-2.054;2023-08-08T06:58:13;100293.22;;;16.54;67.72
77023;BME280;65952;51.440;-2.054;2023-08-08T07:00:39;100290.72;;;16.60;67.77
77023;BME280;65952;51.440;-2.054;2023-08-08T07:03:04;100284.47;;;16.66;67.50
77023;BME280;65952;51.440;-2.054;2023-08-08T07:05:30;100289.25;;;16.64;67.75
77023;BME280;65952;51.440;-2.054;2023-08-08T07:07:55;100280.31;;;16.77;67.16
77023;BME280;65952;51.440;-2.054;2023-08-08T07:10:21;100274.44;;;16.80;66.97
77023;BME280;65952;51.440;-2.054;2023-08-08T07:12:46;100276.94;;;16.81;67.28
77023;BME280;65952;51.440;-2.054;2023-08-08T07:15:12;100269.63;;;16.88;67.09
77023;BME280;65952;51.440;-2.054;2023-08-08T07:17:38;100270.25;;;17.04;67.26
77023;BME280;65952;51.440;-2.054;2023-08-08T07:20:04;100268.16;;;17.13;66.64
77023;BME280;65952;51.440;-2.054;2023-08-08T07:22:31;100272.28;;;17.29;66.44
77023;BME280;65952;51.440;-2.054;2023-08-08T07:24:58;100271.00;;;17.45;65.79
77023;BME280;65952;51.440;-2.054;2023-08-08T07:27:23;100263.00;;;17.57;65.76
77023;BME280;65952;51.440;-2.054;2023-08-08T07:29:49;100264.03;;;17.62;65.32
77023;BME280;65952;51.440;-2.054;2023-08-08T07:32:14;100265.06;;;17.61;65.38
77023;BME280;65952;51.440;-2.054;2023-08-08T07:34:40;100265.84;;;17.75;64.86
77023;BME280;65952;51.440;-2.054;2023-08-08T07:37:05;100260.34;;;17.89;64.42
77023;BME280;65952;51.440;-2.054;2023-08-08T07:39:30;100251.75;;;17.92;64.33
77023;BME280;65952;51.440;-2.054;2023-08-08T07:41:56;100247.50;;;18.09;64.00
77023;BME280;65952;51.440;-2.054;2023-08-08T07:44:22;100245.53;;;18.23;63.54
77023;BME280;65952;51.440;-2.054;2023-08-08T07:46:48;100238.25;;;18.42;63.17
77023;BME280;65952;51.440;-2.054;2023-08-08T07:49:14;100246.47;;;18.61;62.79
77023;BME280;65952;51.440;-2.054;2023-08-08T07:51:39;100242.28;;;18.83;61.51
77023;BME280;65952;51.440;-2.054;2023-08-08T07:54:05;100246.13;;;19.01;61.73
77023;BME280;65952;51.440;-2.054;2023-08-08T07:56:36;100235.53;;;19.30;60.28
77023;BME280;65952;51.440;-2.054;2023-08-08T07:59:02;100240.50;;;19.33;60.24
77023;BME280;65952;51.440;-2.054;2023-08-08T08:01:29;100239.00;;;19.37;60.43
77023;BME280;65952;51.440;-2.054;2023-08-08T08:03:55;100244.91;;;19.34;60.35
77023;BME280;65952;51.440;-2.054;2023-08-08T08:06:20;100233.94;;;19.41;60.44
77023;BME280;65952;51.440;-2.054;2023-08-08T08:08:46;100238.91;;;19.62;59.59
77023;BME280;65952;51.440;-2.054;2023-08-08T08:11:11;100242.44;;;19.63;59.37
77023;BME280;65952;51.440;-2.054;2023-08-08T08:13:38;100228.66;;;19.76;59.34
77023;BME280;65952;51.440;-2.054;2023-08-08T08:16:04;100231.78;;;19.61;59.55
77023;BME280;65952;51.440;-2.054;2023-08-08T08:18:29;100241.91;;;19.73;59.86
77023;BME280;65952;51.440;-2.054;2023-08-08T08:20:55;100242.97;;;19.72;59.87
77023;BME280;65952;51.440;-2.054;2023-08-08T08:23:20;100236.19;;;19.62;60.05
77023;BME280;65952;51.440;-2.054;2023-08-08T08:25:46;100233.97;;;19.71;60.15
77023;BME280;65952;51.440;-2.054;2023-08-08T08:28:12;100230.53;;;19.76;59.72
77023;BME280;65952;51.440;-2.054;2023-08-08T08:30:37;100233.34;;;19.69;59.76
77023;BME280;65952;51.440;-2.054;2023-08-08T08:33:03;100225.81;;;20.02;59.62
77023;BME280;65952;51.440;-2.054;2023-08-08T08:35:29;100217.06;;;20.23;58.63
77023;BME280;65952;51.440;-2.054;2023-08-08T08:37:54;100214.84;;;20.32;58.70
77023;BME280;65952;51.440;-2.054;2023-08-08T08:40:20;100214.47;;;20.28;58.11
77023;BME280;65952;51.440;-2.054;2023-08-08T08:42:46;100216.50;;;20.33;58.33
77023;BME280;65952;51.440;-2.054;2023-08-08T08:45:13;100208.91;;;20.23;58.76
77023;BME280;65952;51.440;-2.054;2023-08-08T08:47:41;100216.94;;;20.06;59.45
77023;BME280;65952;51.440;-2.054;2023-08-08T08:50:08;100212.56;;;20.05;59.84
77023;BME280;65952;51.440;-2.054;2023-08-08T08:52:34;100208.91;;;20.23;59.43
77023;BME280;65952;51.440;-2.054;2023-08-08T08:55:00;100205.56;;;20.09;59.50
77023;BME280;65952;51.440;-2.054;2023-08-08T08:57:25;100210.81;;;20.23;58.93
77023;BME280;65952;51.440;-2.054;2023-08-08T08:59:51;100207.50;;;20.33;59.70
77023;BME280;65952;51.440;-2.054;2023-08-08T09:02:18;100212.72;;;20.34;59.60
77023;BME280;65952;51.440;-2.054;2023-08-08T09:04:44;100212.63;;;20.53;59.75
77023;BME280;65952;51.440;-2.054;2023-08-08T09:07:12;100218.28;;;20.51;58.36
77023;BME280;65952;51.440;-2.054;2023-08-08T09:09:38;100212.13;;;20.56;59.01
77023;BME280;65952;51.440;-2.054;2023-08-08T09:12:04;100207.34;;;20.27;59.64
77023;BME280;65952;51.440;-2.054;2023-08-08T09:14:31;100214.72;;;20.39;59.37
77023;BME280;65952;51.440;-2.054;2023-08-08T09:16:56;100207.59;;;20.26;60.13
77023;BME280;65952;51.440;-2.054;2023-08-08T09:19:23;100209.88;;;20.41;59.89
77023;BME280;65952;51.440;-2.054;2023-08-08T09:21:49;100204.94;;;20.07;60.07
77023;BME280;65952;51.440;-2.054;2023-08-08T09:24:15;100211.44;;;19.94;61.25
77023;BME280;65952;51.440;-2.054;2023-08-08T09:26:42;100215.03;;;19.95;61.96
77023;BME280;65952;51.440;-2.054;2023-08-08T09:29:08;100205.69;;;19.72;63.75
77023;BME280;65952;51.440;-2.054;2023-08-08T09:31:36;100207.28;;;19.92;63.24
77023;BME280;65952;51.440;-2.054;2023-08-08T09:34:03;100199.25;;;19.97;63.75
77023;BME280;65952;51.440;-2.054;2023-08-08T09:36:29;100193.94;;;20.02;63.96
77023;BME280;65952;51.440;-2.054;2023-08-08T09:38:55;100195.16;;;20.18;63.33
77023;BME280;65952;51.440;-2.054;2023-08-08T09:41:22;100187.94;;;20.24;63.45
77023;BME280;65952;51.440;-2.054;2023-08-08T09:43:48;100186.97;;;20.18;63.38
77023;BME280;65952;51.440;-2.054;2023-08-08T09:46:14;100188.88;;;20.18;62.79
77023;BME280;65952;51.440;-2.054;2023-08-08T09:48:41;100179.09;;;19.86;64.12
77023;BME280;65952;51.440;-2.054;2023-08-08T09:51:08;100168.69;;;19.95;64.10
77023;BME280;65952;51.440;-2.054;2023-08-08T09:53:34;100175.34;;;19.99;64.46
77023;BME280;65952;51.440;-2.054;2023-08-08T09:56:02;100171.56;;;20.12;63.88
77023;BME280;65952;51.440;-2.054;2023-08-08T09:58:28;100167.78;;;20.25;64.55
77023;BME280;65952;51.440;-2.054;2023-08-08T10:00:54;100166.81;;;20.31;63.62
77023;BME280;65952;51.440;-2.054;2023-08-08T10:03:20;100163.63;;;20.46;63.72
77023;BME280;65952;51.440;-2.054;2023-08-08T10:05:46;100164.72;;;20.57;62.88
77023;BME280;65952;51.440;-2.054;2023-08-08T10:08:12;100164.63;;;20.75;63.14
77023;BME280;65952;51.440;-2.054;2023-08-08T10:10:40;100160.56;;;20.78;62.45
77023;BME280;65952;51.440;-2.054;2023-08-08T10:13:07;100160.28;;;20.91;61.67
77023;BME280;65952;51.440;-2.054;2023-08-08T10:15:36;100162.19;;;20.91;62.74
77023;BME280;65952;51.440;-2.054;2023-08-08T10:18:02;100159.63;;;20.72;62.67
77023;BME280;65952;51.440;-2.054;2023-08-08T10:20:31;100159.81;;;20.59;63.46
77023;BME280;65952;51.440;-2.054;2023-08-08T10:22:57;100163.53;;;20.53;63.18
77023;BME280;65952;51.440;-2.054;2023-08-08T10:25:23;100161.38;;;20.55;63.60
77023;BME280;65952;51.440;-2.054;2023-08-08T10:27:49;100156.31;;;20.46;63.72
77023;BME280;65952;51.440;-2.054;2023-08-08T10:30:15;100159.34;;;20.50;63.61
77023;BME280;65952;51.440;-2.054;2023-08-08T10:32:45;100161.50;;;20.36;63.39
77023;BME280;65952;51.440;-2.054;2023-08-08T10:35:13;100161.00;;;20.27;64.30
77023;BME280;65952;51.440;-2.054;2023-08-08T10:37:39;100163.09;;;19.90;64.98
77023;BME280;65952;51.440;-2.054;2023-08-08T10:40:06;100153.41;;;19.94;65.18
77023;BME280;65952;51.440;-2.054;2023-08-08T10:42:40;100157.44;;;20.03;65.52
77023;BME280;65952;51.440;-2.054;2023-08-08T10:45:09;100146.34;;;20.17;65.22
77023;BME280;65952;51.440;-2.054;2023-08-08T10:47:36;100146.78;;;20.02;65.75
77023;BME280;65952;51.440;-2.054;2023-08-08T10:50:16;100149.31;;;20.15;65.19
77023;BME280;65952;51.440;-2.054;2023-08-08T10:52:50;100150.56;;;20.01;65.61
77023;BME280;65952;51.440;-2.054;2023-08-08T10:55:23;100149.63;;;19.95;65.65
77023;BME280;65952;51.440;-2.054;2023-08-08T10:57:58;100160.44;;;19.71;66.56
77023;BME280;65952;51.440;-2.054;2023-08-08T11:00:26;100169.78;;;19.75;66.35
77023;BME280;65952;51.440;-2.054;2023-08-08T11:02:53;100153.75;;;19.55;66.42
77023;BME280;65952;51.440;-2.054;2023-08-08T11:05:21;100151.53;;;19.64;66.25
77023;BME280;65952;51.440;-2.054;2023-08-08T11:07:47;100147.88;;;19.70;66.81
77023;BME280;65952;51.440;-2.054;2023-08-08T11:10:13;100144.66;;;19.73;67.14
77023;BME280;65952;51.440;-2.054;2023-08-08T11:12:38;100149.66;;;19.76;66.60
77023;BME280;65952;51.440;-2.054;2023-08-08T11:15:04;100148.09;;;19.99;66.69
77023;BME280;65952;51.440;-2.054;2023-08-08T11:17:32;100145.28;;;20.18;66.36
77023;BME280;65952;51.440;-2.054;2023-08-08T11:19:57;100130.69;;;20.36;66.13
77023;BME280;65952;51.440;-2.054;2023-08-08T11:22:23;100131.63;;;20.41;65.42
77023;BME280;65952;51.440;-2.054;2023-08-08T11:24:49;100128.50;;;20.61;64.87
77023;BME280;65952;51.440;-2.054;2023-08-08T11:27:15;100123.31;;;20.60;64.29
77023;BME280;65952;51.440;-2.054;2023-08-08T11:29:49;100133.03;;;20.56;64.67
77023;BME280;65952;51.440;-2.054;2023-08-08T11:32:15;100125.09;;;20.66;64.81
77023;BME280;65952;51.440;-2.054;2023-08-08T11:34:40;100116.66;;;20.68;64.67
77023;BME280;65952;51.440;-2.054;2023-08-08T11:37:06;100120.22;;;20.92;64.36
77023;BME280;65952;51.440;-2.054;2023-08-08T11:39:32;100116.63;;;21.03;63.44
77023;BME280;65952;51.440;-2.054;2023-08-08T11:41:58;100113.19;;;20.96;63.72
77023;BME280;65952;51.440;-2.054;2023-08-08T11:44:23;100111.25;;;21.08;63.81
77023;BME280;65952;51.440;-2.054;2023-08-08T11:46:49;100106.53;;;21.33;63.55
77023;BME280;65952;51.440;-2.054;2023-08-08T11:49:16;100102.56;;;21.86;62.61
77023;BME280;65952;51.440;-2.054;2023-08-08T11:51:45;100114.41;;;21.92;61.90
77023;BME280;65952;51.440;-2.054;2023-08-08T11:54:10;100109.84;;;21.98;61.99
77023;BME280;65952;51.440;-2.054;2023-08-08T11:56:36;100111.50;;;22.16;61.64
77023;BME280;65952;51.440;-2.054;2023-08-08T11:59:02;100105.03;;;22.39;61.12
77023;BME280;65952;51.440;-2.054;2023-08-08T12:01:28;100097.97;;;22.43;60.63
77023;BME280;65952;51.440;-2.054;2023-08-08T12:03:55;100101.47;;;22.38;61.21
77023;BME280;65952;51.440;-2.054;2023-08-08T12:06:22;100103.72;;;22.42;61.19
77023;BME280;65952;51.440;-2.054;2023-08-08T12:08:48;100107.84;;;22.66;61.18
77023;BME280;65952;51.440;-2.054;2023-08-08T12:11:15;100104.75;;;22.80;60.77
77023;BME280;65952;51.440;-2.054;2023-08-08T12:13:41;100105.53;;;23.19;59.66
77023;BME280;65952;51.440;-2.054;2023-08-08T12:16:12;100099.31;;;23.29;58.72
77023;BME280;65952;51.440;-2.054;2023-08-08T12:18:38;100092.25;;;23.33;57.99
77023;BME280;65952;51.440;-2.054;2023-08-08T12:21:05;100095.16;;;22.99;58.56
77023;BME280;65952;51.440;-2.054;2023-08-08T12:23:31;100097.94;;;23.04;59.09
77023;BME280;65952;51.440;-2.054;2023-08-08T12:25:57;100100.47;;;22.89;58.93
77023;BME280;65952;51.440;-2.054;2023-08-08T12:28:23;100097.44;;;22.63;60.41
77023;BME280;65952;51.440;-2.054;2023-08-08T12:30:49;100094.41;;;22.43;61.13
77023;BME280;65952;51.440;-2.054;2023-08-08T12:33:15;100093.47;;;22.54;61.71
77023;BME280;65952;51.440;-2.054;2023-08-08T12:35:40;100082.78;;;22.52;60.78